createdAt,value
2023-05-10T00:01:55.832Z,100875.69
2023-05-10T00:16:58.332Z,100870.34
2023-05-10T00:32:01.049Z,100867.25
2023-05-10T00:47:03.367Z,100872.81
2023-05-10T01:02:05.878Z,100854.94
2023-05-10T01:17:10.708Z,100852.66
2023-05-10T01:32:39.826Z,100844.56
2023-05-10T01:47:45.027Z,100827.94
2023-05-10T02:02:50.211Z,100826.47
2023-05-10T02:17:56.027Z,100828.84
2023-05-10T02:33:00.254Z,100831.94
2023-05-10T02:48:02.985Z,100837.72
2023-05-10T03:03:08.332Z,100834.16
2023-05-10T03:18:35.144Z,100832.16
2023-05-10T03:33:37.534Z,100848.75
2023-05-10T03:48:39.528Z,100850.59
2023-05-10T04:03:41.795Z,100854.41
2023-05-10T04:18:46.108Z,100847.53
2023-05-10T04:33:48.346Z,100839.06
2023-05-10T04:48:50.397Z,100833.25
2023-05-10T05:03:55.532Z,100825.47
2023-05-10T05:18:57.811Z,100819.59
2023-05-10T05:34:04.998Z,100819.34
2023-05-10T05:49:08.413Z,100830.00
2023-05-10T06:04:10.485Z,100829.69
2023-05-10T06:19:12.690Z,100813.22
2023-05-10T06:34:15.408Z,100813.88
2023-05-10T06:49:18.071Z,100813.91
2023-05-10T07:04:20.201Z,100819.88
2023-05-10T07:19:23.096Z,100813.63
2023-05-10T07:34:25.602Z,100817.75
2023-05-10T07:49:28.817Z,100806.06
2023-05-10T08:04:32.518Z,100815.00
2023-05-10T08:19:41.185Z,100801.75
2023-05-10T08:34:48.267Z,100824.22
2023-05-10T08:49:52.386Z,100805.81
2023-05-10T09:04:54.520Z,100799.53
2023-05-10T09:20:06.474Z,100789.50
2023-05-10T09:35:13.241Z,100799.44
2023-05-10T09:50:15.397Z,100800.84
2023-05-10T10:05:17.559Z,100779.75
2023-05-10T10:20:21.577Z,100763.03
2023-05-10T10:35:24.486Z,100788.50
2023-05-10T10:50:26.400Z,100755.00
2023-05-10T11:05:36.640Z,100754.47
2023-05-10T11:20:41.622Z,100753.00
2023-05-10T11:35:44.257Z,100738.31
2023-05-10T11:50:47.312Z,100733.69
2023-05-10T12:05:49.317Z,100737.22
2023-05-10T12:20:53.887Z,100725.09
2023-05-10T12:35:57.865Z,100759.63
2023-05-10T12:50:59.660Z,100769.38
2023-05-10T13:06:01.541Z,100759.34
2023-05-10T13:21:05.108Z,100746.66
2023-05-10T13:36:08.463Z,100736.09
2023-05-10T13:51:10.543Z,100752.19
2023-05-10T14:06:12.769Z,100764.72
2023-05-10T14:21:14.833Z,100763.38
2023-05-10T14:36:17.283Z,100766.66
2023-05-10T14:51:22.892Z,100765.66
2023-05-10T15:06:31.918Z,100764.88
2023-05-10T15:21:39.825Z,100766.19
2023-05-10T15:36:41.879Z,100759.69
2023-05-10T15:51:43.693Z,100755.59
2023-05-10T16:06:45.589Z,100755.25
2023-05-10T16:21:47.702Z,100762.16
2023-05-10T16:36:49.883Z,100770.41
2023-05-10T16:51:51.738Z,100770.16
2023-05-10T17:06:53.547Z,100773.81
2023-05-10T17:21:55.527Z,100773.63
2023-05-10T17:36:58.485Z,100785.59
2023-05-10T17:52:02.547Z,100801.03
2023-05-10T18:07:04.452Z,100811.56
2023-05-10T18:22:08.899Z,100810.94
2023-05-10T18:37:12.743Z,100815.84
2023-05-10T18:52:16.184Z,100815.38
2023-05-10T19:07:18.016Z,100814.75
2023-05-10T19:22:28.612Z,100808.81
2023-05-10T19:37:39.077Z,100815.69
2023-05-10T19:52:40.930Z,100810.84
2023-05-10T20:07:42.735Z,100808.13
2023-05-10T20:22:44.840Z,100797.75
2023-05-10T20:37:48.919Z,100789.44
2023-05-10T20:52:54.123Z,100797.22
2023-05-10T21:07:56.150Z,100795.09
2023-05-10T21:22:58.508Z,100800.69
2023-05-10T21:38:00.622Z,100809.50
2023-05-10T21:53:02.817Z,100803.47
2023-05-10T22:08:08.207Z,100794.66
2023-05-10T22:23:10.282Z,100803.59
2023-05-10T22:38:13.062Z,100807.97
2023-05-10T22:53:15.117Z,100780.59
2023-05-10T23:08:17.316Z,100800.19
2023-05-10T23:23:19.185Z,100796.38
2023-05-10T23:38:22.105Z,100795.31
2023-05-10T23:53:23.945Z,100795.72
